Hua Hin, Thailand
Current Conditions -  °F | °C
As of 4:00 AM on Monday 24 Nov 2014 (Local Time) from VTBU Reporting Station
Haze Haze  
Wind Chill: 77°   Ceiling: 30000
Heat Index: 78°   Visibility: 2.5mi
Dew Point: 73°   Wind: 3mph
Humidity: 89%   Direction: 330°NNW
Pressure: 29.8"   Gusts: NA
Location:  12.57°N, 99.95°E
Report Text: VTBU 232100Z 33003KT 4000 BR FEW020 BKN300 25/23 Q1009 A2981
Loading
Personal Weather Stations






























Interactive Weather Map New forecast layout! Learn more

10-Day Weather Forecast

Advertisements
Track Severe Weather on mobile